Time;durP1;ratioP1;P1;durP2;ratioP2;P2;SDS_P1;SDS_P2;PMS_P1;PMS_P2;Temp;Humidity;BMP_temperature;BMP_pressure;BME280_temperature;BME280_humidity;BME280_pressure;Samples;Min_cycle;Max_cycle;Signal;HPM_P1;HPM_P2
2023/07/15 00:00:32;;;;;;;5.22;2.00;;;;;20.40;93841.00;;;;7401947;19;20731;-78
2023/07/15 00:03:15;;;;;;;3.60;2.10;;;;;20.50;93834.00;;;;7399608;19;20148;-80
2023/07/15 00:05:57;;;;;;;2.72;2.22;;;;;20.30;93838.00;;;;7401103;19;20169;-77
2023/07/15 00:08:25;;;;;;;4.20;2.28;;;;;20.20;93829.00;;;;7402103;19;20592;-81
2023/07/15 00:11:01;;;;;;;3.67;2.03;;;;;20.30;93832.00;;;;7401640;19;20138;-78
2023/07/15 00:13:34;;;;;;;3.80;2.03;;;;;20.30;93832.00;;;;7399064;19;20611;-77
2023/07/15 00:16:08;;;;;;;3.10;2.10;;;;;20.20;93835.00;;;;7398716;19;20214;-76
2023/07/15 00:18:43;;;;;;;5.53;1.92;;;;;20.30;93830.00;;;;7398379;19;20227;-77
2023/07/15 00:21:23;;;;;;;4.55;2.10;;;;;20.20;93828.00;;;;7398997;19;20568;-77
2023/07/15 00:24:00;;;;;;;2.55;2.00;;;;;20.30;93837.00;;;;7400745;19;20608;-77
2023/07/15 00:26:32;;;;;;;2.50;1.90;;;;;20.40;93833.00;;;;7401373;19;20152;-78
2023/07/15 00:29:07;;;;;;;2.88;2.10;;;;;20.40;93836.00;;;;7398844;19;20156;-76
2023/07/15 00:31:43;;;;;;;4.43;1.85;;;;;20.70;93838.00;;;;7400082;19;20145;-76
2023/07/15 00:34:17;;;;;;;2.78;2.03;;;;;20.70;93836.00;;;;7400088;19;20612;-78
2023/07/15 00:37:00;;;;;;;2.65;1.90;;;;;20.80;93834.00;;;;7399173;19;20135;-76
2023/07/15 00:39:28;;;;;;;3.08;1.83;;;;;20.80;93835.00;;;;7390056;19;20612;-79
2023/07/15 00:42:10;;;;;;;2.78;1.98;;;;;20.90;93835.00;;;;7397824;19;20580;-76
2023/07/15 00:44:47;;;;;;;2.00;1.80;;;;;20.90;93832.00;;;;7397517;19;20541;-78
2023/07/15 00:47:39;;;;;;;6.72;1.88;;;;;21.00;93835.00;;;;7400542;19;20133;-78
2023/07/15 00:50:08;;;;;;;2.28;1.65;;;;;20.70;93842.00;;;;7399696;19;20144;-77
2023/07/15 00:52:46;;;;;;;2.42;2.08;;;;;20.60;93844.00;;;;7398856;19;20173;-77
2023/07/15 00:55:22;;;;;;;2.78;1.85;;;;;20.40;93842.00;;;;7398025;19;20507;-77
2023/07/15 00:57:57;;;;;;;3.55;2.10;;;;;20.10;93851.00;;;;7398876;19;20158;-76
2023/07/15 01:00:26;;;;;;;2.72;2.00;;;;;19.90;93846.00;;;;7395857;19;20149;-76
2023/07/15 01:03:09;;;;;;;1.60;1.50;;;;;20.00;93851.00;;;;7399076;19;20137;-75
2023/07/15 01:05:38;;;;;;;1.92;1.63;;;;;19.80;93842.00;;;;7398843;19;20232;-78
2023/07/15 01:08:15;;;;;;;2.13;1.90;;;;;19.90;93848.00;;;;7398890;19;20604;-77
2023/07/15 01:10:45;;;;;;;2.53;1.77;;;;;20.10;93845.00;;;;7400495;19;20617;-79
2023/07/15 01:13:21;;;;;;;3.22;1.80;;;;;19.90;93850.00;;;;7397756;19;20523;-77
2023/07/15 01:15:51;;;;;;;6.28;1.75;;;;;19.70;93846.00;;;;7396810;19;20601;-80
2023/07/15 01:18:27;;;;;;;1.90;1.63;;;;;19.60;93845.00;;;;7397775;19;20140;-77
2023/07/15 01:21:04;;;;;;;4.78;1.90;;;;;19.60;93846.00;;;;7397693;19;20148;-79
2023/07/15 01:23:39;;;;;;;2.47;1.85;;;;;19.50;93851.00;;;;7398079;19;20131;-78
2023/07/15 01:26:14;;;;;;;2.45;1.70;;;;;19.30;93852.00;;;;7393302;19;20663;-78
2023/07/15 01:28:49;;;;;;;1.80;1.70;;;;;19.20;93850.00;;;;7398402;19;20159;-77
2023/07/15 01:31:25;;;;;;;1.80;1.70;;;;;19.10;93850.00;;;;7399619;19;20125;-77
2023/07/15 01:33:53;;;;;;;3.53;1.67;;;;;18.90;93851.00;;;;7397815;19;20170;-78
2023/07/15 01:36:28;;;;;;;1.98;1.70;;;;;18.80;93858.00;;;;7396532;19;20750;-79
2023/07/15 01:39:06;;;;;;;2.65;1.90;;;;;18.80;93859.00;;;;7398464;19;20663;-79
2023/07/15 01:41:35;;;;;;;1.75;1.58;;;;;18.70;93854.00;;;;7396917;19;20166;-78
2023/07/15 01:44:04;;;;;;;3.58;1.70;;;;;18.60;93855.00;;;;7393561;19;20167;-78
2023/07/15 01:46:39;;;;;;;2.88;1.92;;;;;18.50;93852.00;;;;7396286;19;20129;-77
2023/07/15 01:49:08;;;;;;;2.67;1.80;;;;;18.40;93849.00;;;;7398568;19;20140;-78
2023/07/15 01:51:41;;;;;;;3.15;1.70;;;;;18.60;93852.00;;;;7398209;19;20520;-77
2023/07/15 01:54:09;;;;;;;2.22;1.60;;;;;18.70;93846.00;;;;7398314;19;20153;-76
2023/07/15 01:56:41;;;;;;;2.53;1.50;;;;;18.60;93838.00;;;;7395580;19;20247;-78
2023/07/15 01:59:15;;;;;;;2.05;1.58;;;;;18.80;93836.00;;;;7397185;19;20528;-78
2023/07/15 02:01:44;;;;;;;2.42;1.63;;;;;18.70;93834.00;;;;7398362;19;20151;-76
2023/07/15 02:04:12;;;;;;;5.13;1.48;;;;;18.70;93832.00;;;;7398108;19;20149;-79
2023/07/15 02:06:46;;;;;;;2.08;1.50;;;;;18.80;93825.00;;;;7398235;19;20140;-77
2023/07/15 02:09:21;;;;;;;3.60;1.60;;;;;18.80;93826.00;;;;7399062;19;20128;-77
2023/07/15 02:11:49;;;;;;;1.50;1.40;;;;;18.80;93826.00;;;;7394446;19;20149;-77
2023/07/15 02:14:25;;;;;;;2.22;1.60;;;;;18.90;93819.00;;;;7394413;19;20152;-77
2023/07/15 02:17:00;;;;;;;1.58;1.48;;;;;18.90;93817.00;;;;7394127;19;20140;-77
2023/07/15 02:19:35;;;;;;;3.45;1.73;;;;;18.80;93821.00;;;;7396235;19;20136;-77
2023/07/15 02:22:03;;;;;;;2.35;1.63;;;;;18.70;93825.00;;;;7397414;19;20133;-77
2023/07/15 02:24:41;;;;;;;2.75;1.55;;;;;18.70;93820.00;;;;7398162;19;20176;-78
2023/07/15 02:27:17;;;;;;;2.50;1.60;;;;;18.80;93826.00;;;;7396185;19;20150;-78
2023/07/15 02:29:51;;;;;;;2.83;1.50;;;;;19.00;93821.00;;;;7396355;19;20156;-78
2023/07/15 02:32:39;;;;;;;2.90;1.45;;;;;19.30;93818.00;;;;7396615;19;20148;-77
2023/07/15 02:35:15;;;;;;;1.85;1.55;;;;;19.60;93811.00;;;;7397263;19;20151;-77
2023/07/15 02:37:50;;;;;;;1.83;1.58;;;;;19.80;93813.00;;;;7399673;19;20235;-78
2023/07/15 02:40:25;;;;;;;2.45;1.58;;;;;19.80;93819.00;;;;7394059;19;20166;-78
2023/07/15 02:43:01;;;;;;;1.75;1.60;;;;;19.70;93819.00;;;;7398044;19;20462;-78
2023/07/15 02:45:42;;;;;;;2.40;1.80;;;;;20.00;93804.00;;;;7398778;19;20513;-80
2023/07/15 02:48:10;;;;;;;2.60;1.80;;;;;20.10;93806.00;;;;7392236;19;20152;-77
2023/07/15 02:50:50;;;;;;;2.78;1.50;;;;;19.90;93811.00;;;;7395267;19;20245;-76
2023/07/15 02:53:20;;;;;;;4.68;1.55;;;;;19.70;93818.00;;;;7396847;19;20151;-76
2023/07/15 02:55:56;;;;;;;4.90;1.65;;;;;19.80;93813.00;;;;7396450;19;20144;-78
2023/07/15 02:58:23;;;;;;;2.17;1.67;;;;;19.90;93802.00;;;;7394721;19;20133;-76
2023/07/15 03:00:52;;;;;;;1.60;1.45;;;;;19.80;93805.00;;;;7393715;19;20604;-78
2023/07/15 03:03:26;;;;;;;3.42;1.48;;;;;19.90;93807.00;;;;7393810;19;20151;-76
2023/07/15 03:06:01;;;;;;;3.03;1.98;;;;;19.70;93807.00;;;;7396559;19;20144;-78
2023/07/15 03:08:29;;;;;;;1.65;1.42;;;;;19.80;93816.00;;;;7394672;19;20147;-76
2023/07/15 03:11:08;;;;;;;1.83;1.45;;;;;19.80;93809.00;;;;7396941;19;20575;-78
2023/07/15 03:13:36;;;;;;;1.70;1.60;;;;;19.90;93810.00;;;;7395042;19;20695;-78
2023/07/15 03:16:11;;;;;;;5.43;2.55;;;;;20.00;93802.00;;;;7395993;19;20759;-78
2023/07/15 03:18:39;;;;;;;3.50;2.13;;;;;20.10;93803.00;;;;7396767;19;20121;-77
2023/07/15 03:21:14;;;;;;;1.90;1.40;;;;;20.30;93808.00;;;;7393127;19;20484;-78
2023/07/15 03:23:48;;;;;;;1.95;1.67;;;;;20.30;93806.00;;;;7395329;19;20518;-77
2023/07/15 03:26:25;;;;;;;4.05;1.90;;;;;20.50;93803.00;;;;7396170;19;20152;-77
2023/07/15 03:28:54;;;;;;;2.75;1.40;;;;;20.60;93796.00;;;;7394062;19;20171;-77
2023/07/15 03:31:29;;;;;;;4.60;1.60;;;;;20.80;93804.00;;;;7396298;19;20168;-79
2023/07/15 03:34:04;;;;;;;2.85;1.50;;;;;20.90;93796.00;;;;7397592;19;20169;-77
2023/07/15 03:36:34;;;;;;;8.40;2.10;;;;;21.00;93798.00;;;;7396123;19;20144;-80
2023/07/15 03:39:08;;;;;;;3.97;1.58;;;;;21.10;93799.00;;;;7393662;19;20718;-79
2023/07/15 03:41:36;;;;;;;2.33;1.73;;;;;21.00;93788.00;;;;7395685;19;20160;-79
2023/07/15 03:44:20;;;;;;;4.00;1.55;;;;;21.10;93793.00;;;;7391331;19;20663;-76
2023/07/15 03:46:57;;;;;;;4.15;1.85;;;;;21.00;93794.00;;;;7393516;19;20182;-77
2023/07/15 03:49:32;;;;;;;5.55;2.00;;;;;21.10;93792.00;;;;7395285;19;20651;-79
2023/07/15 03:52:00;;;;;;;4.35;2.05;;;;;21.20;93791.00;;;;7395937;19;20131;-80
2023/07/15 03:54:35;;;;;;;4.65;1.75;;;;;21.00;93790.00;;;;7394331;19;20140;-78
2023/07/15 03:57:11;;;;;;;2.85;1.80;;;;;20.80;93787.00;;;;7394215;19;20615;-79
2023/07/15 03:59:39;;;;;;;1.85;1.67;;;;;20.70;93790.00;;;;7394750;19;20592;-78
2023/07/15 04:02:14;;;;;;;2.00;1.80;;;;;20.80;93783.00;;;;7392859;19;20176;-78
2023/07/15 04:04:49;;;;;;;5.90;1.88;;;;;21.10;93787.00;;;;7393876;19;20154;-77
2023/07/15 04:07:24;;;;;;;1.95;1.63;;;;;21.30;93779.00;;;;7392684;19;20489;-79
2023/07/15 04:10:00;;;;;;;1.48;1.30;;;;;21.30;93772.00;;;;7393938;19;20144;-77
2023/07/15 04:12:42;;;;;;;2.05;1.67;;;;;21.40;93773.00;;;;7394697;19;20216;-76
2023/07/15 04:15:17;;;;;;;3.30;1.70;;;;;21.40;93766.00;;;;7394050;19;20152;-77
2023/07/15 04:17:52;;;;;;;2.00;1.80;;;;;21.40;93770.00;;;;7394071;19;20141;-79
2023/07/15 04:20:28;;;;;;;1.67;1.50;;;;;21.40;93767.00;;;;7393737;19;20153;-78
2023/07/15 04:23:04;;;;;;;1.90;1.70;;;;;21.50;93764.00;;;;7394541;19;20141;-78
2023/07/15 04:25:32;;;;;;;2.30;1.70;;;;;21.50;93768.00;;;;7392587;19;20151;-77
2023/07/15 04:28:08;;;;;;;2.60;1.70;;;;;21.60;93767.00;;;;7393378;19;20148;-78
2023/07/15 04:30:42;;;;;;;2.15;1.70;;;;;21.70;93765.00;;;;7392340;19;20169;-78
2023/07/15 04:33:22;;;;;;;6.82;1.83;;;;;21.80;93759.00;;;;7393088;19;20259;-78
2023/07/15 04:35:57;;;;;;;2.90;1.67;;;;;21.80;93767.00;;;;7401404;19;20556;-78
2023/07/15 04:38:39;;;;;;;3.72;1.80;;;;;21.90;93774.00;;;;7400933;19;20147;-78
2023/07/15 04:41:14;;;;;;;1.65;1.50;;;;;22.10;93775.00;;;;7398263;19;20140;-78
2023/07/15 04:43:51;;;;;;;2.20;1.50;;;;;22.20;93771.00;;;;7396924;19;20171;-77
2023/07/15 04:46:33;;;;;;;2.65;1.60;;;;;22.40;93766.00;;;;7401995;19;20591;-78
2023/07/15 04:49:02;;;;;;;3.15;1.67;;;;;22.50;93766.00;;;;7400689;19;20152;-78
2023/07/15 04:51:37;;;;;;;3.28;2.15;;;;;22.50;93764.00;;;;7399130;19;20137;-78
2023/07/15 04:54:11;;;;;;;2.65;1.63;;;;;22.60;93772.00;;;;7399984;19;20627;-76
2023/07/15 04:56:47;;;;;;;2.65;1.85;;;;;22.60;93778.00;;;;7400589;19;20145;-78
2023/07/15 04:59:23;;;;;;;2.33;1.90;;;;;22.70;93780.00;;;;7400715;19;20145;-79
2023/07/15 05:01:58;;;;;;;2.38;1.65;;;;;22.70;93778.00;;;;7398366;19;20176;-77
2023/07/15 05:04:33;;;;;;;2.13;1.65;;;;;22.90;93783.00;;;;7398631;19;20156;-77
2023/07/15 05:07:01;;;;;;;2.08;1.83;;;;;23.10;93787.00;;;;7399540;19;20595;-77
2023/07/15 05:09:36;;;;;;;4.88;1.95;;;;;23.20;93783.00;;;;7398710;19;20211;-77
2023/07/15 05:12:11;;;;;;;2.22;1.70;;;;;23.20;93777.00;;;;7399946;19;20136;-78
2023/07/15 05:14:46;;;;;;;1.60;1.50;;;;;23.30;93778.00;;;;7400951;19;20136;-78
2023/07/15 05:17:16;;;;;;;2.10;1.67;;;;;23.40;93773.00;;;;7401086;19;20604;-77
2023/07/15 05:19:52;;;;;;;2.80;1.70;;;;;23.40;93774.00;;;;7399023;19;20162;-79
2023/07/15 05:22:29;;;;;;;8.88;2.10;;;;;23.40;93777.00;;;;7398611;19;20491;-78
2023/07/15 05:25:03;;;;;;;2.13;1.85;;;;;23.40;93775.00;;;;7399899;19;20132;-76
2023/07/15 05:27:41;;;;;;;2.35;1.70;;;;;23.50;93783.00;;;;7398813;19;20529;-76
2023/07/15 05:30:10;;;;;;;4.95;2.00;;;;;23.70;93778.00;;;;7381982;19;20208;-79
2023/07/15 05:32:45;;;;;;;2.50;1.85;;;;;23.80;93778.00;;;;7386763;19;20585;-79
2023/07/15 05:35:14;;;;;;;2.70;1.85;;;;;23.90;93774.00;;;;7391160;19;20145;-76
2023/07/15 05:37:50;;;;;;;2.60;2.00;;;;;23.90;93773.00;;;;7394086;19;20128;-77
2023/07/15 05:40:20;;;;;;;3.70;1.90;;;;;24.00;93777.00;;;;7396030;19;20181;-78
2023/07/15 05:42:57;;;;;;;3.35;2.13;;;;;24.20;93771.00;;;;7394763;19;20148;-79
2023/07/15 05:45:32;;;;;;;3.42;2.13;;;;;24.30;93764.00;;;;7384049;19;20161;-79
2023/07/15 05:48:07;;;;;;;3.75;1.83;;;;;24.50;93763.00;;;;7389128;19;20584;-79
2023/07/15 05:50:37;;;;;;;5.32;1.85;;;;;24.70;93758.00;;;;7390893;19;20132;-84
2023/07/15 05:53:13;;;;;;;2.42;2.15;;;;;25.10;93750.00;;;;7391292;19;20164;-80
2023/07/15 05:55:42;;;;;;;2.90;2.08;;;;;25.30;93753.00;;;;7388139;19;20137;-79
2023/07/15 05:58:17;;;;;;;3.05;2.10;;;;;25.40;93761.00;;;;7390041;19;20580;-80
2023/07/15 06:00:51;;;;;;;3.55;2.22;;;;;25.10;93759.00;;;;7390474;19;20163;-79
2023/07/15 06:03:27;;;;;;;2.58;1.98;;;;;25.10;93761.00;;;;7388769;19;20157;-79
2023/07/15 06:06:03;;;;;;;3.17;2.08;;;;;25.20;93763.00;;;;7390565;19;20144;-80
2023/07/15 06:08:39;;;;;;;4.78;1.98;;;;;25.10;93774.00;;;;7386876;19;20152;-82
2023/07/15 06:11:16;;;;;;;2.78;1.88;;;;;24.50;93771.00;;;;7387633;19;20624;-78
2023/07/15 06:14:03;;;;;;;2.50;2.15;;;;;24.10;93763.00;;;;7388773;19;20541;-81
2023/07/15 06:16:43;;;;;;;2.63;2.42;;;;;23.70;93779.00;;;;7388506;19;20156;-80
2023/07/15 06:19:18;;;;;;;2.53;1.77;;;;;23.90;93769.00;;;;7387501;19;20971;-78
2023/07/15 06:21:54;;;;;;;2.22;2.03;;;;;24.50;93768.00;;;;7388372;19;20152;-82
2023/07/15 06:24:22;;;;;;;3.05;2.33;;;;;24.70;93756.00;;;;7387533;19;20144;-80
2023/07/15 06:26:59;;;;;;;4.93;2.35;;;;;24.80;93752.00;;;;7387175;19;20132;-81
2023/07/15 06:29:34;;;;;;;6.13;2.35;;;;;24.90;93755.00;;;;7388538;19;20124;-81
2023/07/15 06:32:09;;;;;;;4.38;2.20;;;;;25.00;93750.00;;;;7387255;19;20519;-82
2023/07/15 06:34:44;;;;;;;3.15;2.70;;;;;25.00;93762.00;;;;7388541;19;20157;-87
2023/07/15 06:37:12;;;;;;;7.15;2.45;;;;;25.20;93750.00;;;;7389338;19;20189;-80
2023/07/15 06:39:48;;;;;;;4.05;2.20;;;;;25.40;93764.00;;;;7387130;19;20236;-79
2023/07/15 06:42:24;;;;;;;3.08;2.00;;;;;25.30;93754.00;;;;7389350;19;20144;-80
2023/07/15 06:45:06;;;;;;;2.40;2.20;;;;;25.20;93755.00;;;;7384821;19;20180;-80
2023/07/15 06:47:34;;;;;;;2.38;2.13;;;;;25.20;93764.00;;;;7388010;19;20203;-83
2023/07/15 06:50:09;;;;;;;4.30;2.20;;;;;25.10;93768.00;;;;7386319;19;20620;-80
2023/07/15 06:52:46;;;;;;;2.97;2.47;;;;;25.30;93765.00;;;;7387993;19;20148;-84
2023/07/15 06:55:14;;;;;;;2.90;2.50;;;;;25.40;93773.00;;;;7386340;19;20153;-79
2023/07/15 06:57:55;;;;;;;3.67;2.38;;;;;25.50;93778.00;;;;7388903;19;20620;-86
2023/07/15 07:00:24;;;;;;;4.07;2.42;;;;;25.70;93778.00;;;;7387359;19;20547;-84
2023/07/15 07:02:59;;;;;;;2.70;2.20;;;;;25.60;93784.00;;;;7384675;19;20165;-81
2023/07/15 07:05:29;;;;;;;3.10;2.53;;;;;25.60;93778.00;;;;7380025;19;20165;-79
2023/07/15 07:08:04;;;;;;;6.78;3.17;;;;;25.80;93771.00;;;;7388564;19;20140;-80
2023/07/15 07:10:32;;;;;;;3.78;2.30;;;;;26.20;93771.00;;;;7387851;19;20125;-82
2023/07/15 07:13:07;;;;;;;3.42;2.40;;;;;26.50;93763.00;;;;7384427;19;20496;-81
2023/07/15 07:15:34;;;;;;;3.55;2.45;;;;;27.00;93756.00;;;;7387055;19;20155;-79
2023/07/15 07:18:09;;;;;;;5.03;2.90;;;;;27.40;93770.00;;;;7384586;19;20591;-80
2023/07/15 07:20:41;;;;;;;4.45;2.15;;;;;27.30;93776.00;;;;7386461;19;20125;-79
2023/07/15 07:23:15;;;;;;;2.88;2.60;;;;;27.00;93766.00;;;;7385993;19;20132;-79
2023/07/15 07:25:54;;;;;;;2.45;2.20;;;;;26.90;93785.00;;;;7383659;19;20531;-80
2023/07/15 07:28:41;;;;;;;3.85;2.53;;;;;27.00;93786.00;;;;7381482;19;20121;-78
2023/07/15 07:31:11;;;;;;;4.15;2.47;;;;;26.80;93787.00;;;;7383510;19;20141;-80
2023/07/15 07:33:47;;;;;;;5.57;2.75;;;;;26.60;93786.00;;;;7385868;19;20143;-79
2023/07/15 07:36:17;;;;;;;8.85;2.80;;;;;26.80;93798.00;;;;7383877;19;20646;-80
2023/07/15 07:38:53;;;;;;;3.65;2.60;;;;;26.70;93796.00;;;;7381608;19;20158;-80
2023/07/15 07:41:42;;;;;;;6.28;2.55;;;;;26.50;93786.00;;;;7388081;19;20513;-81
2023/07/15 07:44:10;;;;;;;3.10;2.58;;;;;26.30;93773.00;;;;7384836;19;20176;-78
2023/07/15 07:46:44;;;;;;;3.03;2.22;;;;;26.70;93798.00;;;;7382894;19;20179;-80
2023/07/15 07:49:19;;;;;;;4.05;2.45;;;;;26.60;93789.00;;;;7384038;19;20707;-80
2023/07/15 07:51:54;;;;;;;3.60;2.33;;;;;26.30;93782.00;;;;7383737;19;20569;-79
2023/07/15 07:54:23;;;;;;;7.32;2.75;;;;;26.80;93790.00;;;;7384556;19;20589;-80
2023/07/15 07:56:59;;;;;;;2.80;2.53;;;;;27.10;93783.00;;;;7386625;19;20523;-79
2023/07/15 07:59:27;;;;;;;3.00;2.40;;;;;27.70;93784.00;;;;7385313;19;20555;-76
2023/07/15 08:02:11;;;;;;;2.53;2.33;;;;;28.10;93771.00;;;;7382597;19;20157;-79
2023/07/15 08:04:53;;;;;;;3.55;2.45;;;;;28.10;93798.00;;;;7383191;19;20156;-78
2023/07/15 08:07:29;;;;;;;2.53;2.33;;;;;27.80;93794.00;;;;7384194;19;20239;-77
2023/07/15 08:09:57;;;;;;;4.28;2.88;;;;;27.90;93778.00;;;;7386581;19;20129;-77
2023/07/15 08:12:33;;;;;;;6.55;2.90;;;;;28.00;93771.00;;;;7389443;19;20132;-79
2023/07/15 08:15:02;;;;;;;5.57;2.63;;;;;28.00;93789.00;;;;7389253;19;20156;-76
2023/07/15 08:17:44;;;;;;;3.05;2.75;;;;;27.70;93799.00;;;;7390484;19;20600;-79
2023/07/15 08:20:21;;;;;;;3.03;2.47;;;;;27.50;93800.00;;;;7388219;19;20153;-79
2023/07/15 08:22:58;;;;;;;7.20;2.85;;;;;27.60;93795.00;;;;7390314;19;20659;-77
2023/07/15 08:25:32;;;;;;;3.30;2.78;;;;;27.80;93805.00;;;;7388181;19;20470;-76
2023/07/15 08:28:06;;;;;;;4.03;3.00;;;;;27.80;93808.00;;;;7388991;19;20146;-82
2023/07/15 08:30:36;;;;;;;5.38;2.40;;;;;27.60;93822.00;;;;7390438;19;20133;-78
2023/07/15 08:33:12;;;;;;;2.65;2.45;;;;;27.50;93820.00;;;;7390051;19;20137;-76
2023/07/15 08:35:46;;;;;;;3.05;2.65;;;;;27.20;93816.00;;;;7387912;19;20156;-78
2023/07/15 08:38:20;;;;;;;4.00;2.58;;;;;27.70;93799.00;;;;7388602;19;20497;-78
2023/07/15 08:41:00;;;;;;;4.80;2.60;;;;;28.70;93787.00;;;;7387975;19;20145;-79
2023/07/15 08:43:46;;;;;;;4.05;2.78;;;;;29.50;93779.00;;;;7386453;19;20620;-77
2023/07/15 08:46:27;;;;;;;3.65;3.13;;;;;29.80;93782.00;;;;7389320;19;20589;-78
2023/07/15 08:49:06;;;;;;;5.05;2.58;;;;;29.70;93776.00;;;;7387342;19;20136;-78
2023/07/15 08:51:44;;;;;;;5.68;3.00;;;;;29.70;93786.00;;;;7390659;19;20220;-78
2023/07/15 08:54:20;;;;;;;3.85;2.80;;;;;30.20;93779.00;;;;7389293;19;20139;-79
2023/07/15 08:56:50;;;;;;;5.25;2.40;;;;;30.20;93787.00;;;;7388639;19;20137;-79
2023/07/15 08:59:26;;;;;;;5.15;2.58;;;;;30.50;93777.00;;;;7389866;19;20133;-77
2023/07/15 09:01:54;;;;;;;6.75;2.40;;;;;30.20;93780.00;;;;7387203;19;20234;-78
2023/07/15 09:04:31;;;;;;;2.97;2.50;;;;;30.20;93798.00;;;;7388239;19;20759;-79
2023/07/15 09:06:59;;;;;;;2.70;2.50;;;;;29.90;93795.00;;;;7389745;19;20136;-77
2023/07/15 09:09:38;;;;;;;5.55;2.67;;;;;29.70;93774.00;;;;7390994;19;20599;-80
2023/07/15 09:12:12;;;;;;;3.17;2.42;;;;;29.80;93795.00;;;;7391609;19;23316;-80
2023/07/15 09:14:47;;;;;;;7.00;2.90;;;;;29.30;93792.00;;;;7388206;19;20625;-81
2023/07/15 09:17:26;;;;;;;3.17;2.20;;;;;29.30;93791.00;;;;7389285;19;20139;-82
2023/07/15 09:20:15;;;;;;;4.00;2.80;;;;;29.40;93803.00;;;;7390199;19;20446;-82
2023/07/15 09:22:58;;;;;;;2.50;2.30;;;;;29.00;93810.00;;;;7393092;19;20592;-81
2023/07/15 09:25:37;;;;;;;4.85;2.85;;;;;28.80;93812.00;;;;7389837;19;20542;-82
2023/07/15 09:28:13;;;;;;;3.60;2.88;;;;;28.80;93813.00;;;;7390567;19;20128;-82
2023/07/15 09:30:50;;;;;;;3.03;2.58;;;;;28.60;93810.00;;;;7388333;19;20158;-81
2023/07/15 09:33:35;;;;;;;3.90;2.60;;;;;28.90;93813.00;;;;7390698;19;20129;-81
2023/07/15 09:36:11;;;;;;;3.00;2.70;;;;;28.90;93800.00;;;;7383156;19;21579;-81
2023/07/15 09:38:46;;;;;;;4.32;2.55;;;;;30.00;93772.00;;;;7381035;19;20165;-79
2023/07/15 09:41:19;;;;;;;4.80;2.55;;;;;30.20;93794.00;;;;7385380;19;20129;-82
2023/07/15 09:44:02;;;;;;;4.45;2.67;;;;;29.70;93799.00;;;;7386694;19;20479;-80
2023/07/15 09:46:39;;;;;;;4.55;2.50;;;;;29.60;93799.00;;;;7386294;19;20128;-81
2023/07/15 09:49:17;;;;;;;5.50;2.80;;;;;29.60;93794.00;;;;7388893;19;20158;-83
2023/07/15 09:51:45;;;;;;;3.30;3.00;;;;;30.00;93787.00;;;;7386894;19;20504;-83
2023/07/15 09:54:15;;;;;;;2.58;2.28;;;;;30.10;93788.00;;;;7384445;19;20129;-83
2023/07/15 09:56:59;;;;;;;5.07;2.83;;;;;31.00;93766.00;;;;7388807;19;20143;-84
2023/07/15 09:59:51;;;;;;;5.28;2.40;;;;;32.00;93775.00;;;;7386010;19;20145;-83
2023/07/15 10:02:41;;;;;;;3.38;2.50;;;;;31.80;93788.00;;;;7383649;19;20149;-84
2023/07/15 10:05:16;;;;;;;4.05;2.42;;;;;31.30;93789.00;;;;7385454;19;20129;-85
2023/07/15 10:07:53;;;;;;;3.20;2.40;;;;;31.20;93794.00;;;;7384281;19;21420;-83
2023/07/15 10:10:21;;;;;;;5.50;2.67;;;;;31.30;93792.00;;;;7384551;19;20174;-79
2023/07/15 10:12:57;;;;;;;7.18;2.85;;;;;31.50;93794.00;;;;7384381;19;20148;-83
2023/07/15 10:15:34;;;;;;;3.42;2.78;;;;;30.70;93801.00;;;;7387279;19;20499;-86
2023/07/15 10:18:19;;;;;;;2.58;2.28;;;;;30.80;93808.00;;;;7387292;19;20156;-77
2023/07/15 10:20:56;;;;;;;2.60;2.40;;;;;30.80;93813.00;;;;7388795;19;20124;-81
2023/07/15 10:23:25;;;;;;;4.05;2.65;;;;;30.70;93818.00;;;;7389141;19;20630;-79
2023/07/15 10:26:04;;;;;;;3.10;2.50;;;;;29.50;93815.00;;;;7389926;19;20132;-76
2023/07/15 10:29:01;;;;;;;7.43;2.90;;;;;29.80;93801.00;;;;7386507;19;20160;-81
2023/07/15 10:31:35;;;;;;;3.22;2.92;;;;;30.10;93782.00;;;;7386208;19;20152;-79
2023/07/15 10:34:10;;;;;;;3.72;2.70;;;;;30.40;93784.00;;;;7386018;19;20159;-80
2023/07/15 10:36:50;;;;;;;3.10;2.80;;;;;31.10;93786.00;;;;7384596;19;20724;-81
2023/07/15 10:39:32;;;;;;;3.58;2.47;;;;;31.30;93778.00;;;;7386835;19;20132;-79
2023/07/15 10:42:12;;;;;;;2.92;2.72;;;;;31.70;93771.00;;;;7387019;19;20155;-78
2023/07/15 10:44:54;;;;;;;3.55;2.78;;;;;32.60;93766.00;;;;7385654;19;20493;-78
2023/07/15 10:47:35;;;;;;;5.15;2.97;;;;;32.20;93767.00;;;;7386772;19;20510;-80
2023/07/15 10:50:08;;;;;;;7.10;3.03;;;;;33.10;93768.00;;;;7384121;19;20635;-78
2023/07/15 10:52:42;;;;;;;4.72;3.25;;;;;33.70;93760.00;;;;7383718;19;20136;-78
2023/07/15 10:55:10;;;;;;;3.90;3.30;;;;;33.10;93796.00;;;;7383851;19;20136;-81
2023/07/15 10:57:44;;;;;;;3.47;3.15;;;;;31.50;93771.00;;;;7385476;19;20525;-78
2023/07/15 11:00:21;;;;;;;3.25;2.95;;;;;32.60;93753.00;;;;7384000;19;20718;-78
2023/07/15 11:02:56;;;;;;;5.10;3.22;;;;;33.30;93752.00;;;;7382298;19;20176;-78
2023/07/15 11:05:25;;;;;;;3.08;2.65;;;;;32.00;93745.00;;;;7377004;19;20157;-75
2023/07/15 11:07:59;;;;;;;3.45;2.95;;;;;32.10;93764.00;;;;7382370;19;20132;-79
2023/07/15 11:10:34;;;;;;;3.63;3.17;;;;;31.80;93775.00;;;;7382638;19;20203;-77
2023/07/15 11:13:15;;;;;;;3.03;2.78;;;;;30.70;93783.00;;;;7385886;19;20790;-78
2023/07/15 11:15:50;;;;;;;3.50;2.90;;;;;30.30;93797.00;;;;7385084;19;20449;-78
2023/07/15 11:18:31;;;;;;;4.85;2.88;;;;;30.40;93791.00;;;;7380767;19;20132;-78
2023/07/15 11:21:06;;;;;;;3.63;2.83;;;;;29.50;93778.00;;;;7382757;19;20141;-77
2023/07/15 11:23:34;;;;;;;8.80;3.40;;;;;29.10;93776.00;;;;7381712;19;20149;-79
2023/07/15 11:26:09;;;;;;;6.07;3.03;;;;;29.00;93764.00;;;;7382699;19;20579;-78
2023/07/15 11:28:47;;;;;;;4.45;2.85;;;;;28.60;93774.00;;;;7384652;19;20132;-77
2023/07/15 11:31:26;;;;;;;3.50;3.13;;;;;28.80;93767.00;;;;7382947;19;20124;-76
2023/07/15 11:33:57;;;;;;;5.43;3.03;;;;;29.60;93775.00;;;;7378691;19;20162;-76
2023/07/15 11:36:34;;;;;;;4.85;2.92;;;;;29.60;93778.00;;;;7382699;19;20596;-77
2023/07/15 11:39:04;;;;;;;5.20;3.13;;;;;30.20;93736.00;;;;7378037;19;20551;-77
2023/07/15 11:41:44;;;;;;;3.90;2.42;;;;;31.30;93721.00;;;;7381662;19;20135;-75
2023/07/15 11:44:30;;;;;;;3.90;3.50;;;;;31.70;93711.00;;;;7381364;19;20519;-77
2023/07/15 11:47:05;;;;;;;5.43;2.95;;;;;32.40;93702.00;;;;7383440;19;20143;-75
2023/07/15 11:49:44;;;;;;;6.63;2.97;;;;;32.60;93697.00;;;;7382123;19;20553;-76
2023/07/15 11:52:20;;;;;;;3.50;3.10;;;;;33.40;93691.00;;;;7382312;19;20663;-74
2023/07/15 11:54:56;;;;;;;4.78;2.90;;;;;33.90;93681.00;;;;7384340;19;20666;-77
2023/07/15 11:57:25;;;;;;;3.88;3.42;;;;;34.20;93682.00;;;;7380528;19;20153;-78
2023/07/15 11:59:59;;;;;;;3.67;3.25;;;;;33.00;93677.00;;;;7380107;19;20124;-78
2023/07/15 12:02:29;;;;;;;6.13;2.97;;;;;32.60;93681.00;;;;7380358;19;20649;-79
2023/07/15 12:05:06;;;;;;;4.25;3.05;;;;;33.00;93678.00;;;;7381057;19;20622;-80
2023/07/15 12:07:34;;;;;;;4.65;2.92;;;;;33.40;93676.00;;;;7381017;19;20152;-77
2023/07/15 12:10:09;;;;;;;5.63;3.72;;;;;33.90;93659.00;;;;7380244;19;20164;-80
2023/07/15 12:12:45;;;;;;;5.45;2.83;;;;;34.40;93660.00;;;;7381730;19;20136;-77
2023/07/15 12:15:20;;;;;;;4.70;3.20;;;;;34.70;93658.00;;;;7382048;19;20154;-79
2023/07/15 12:17:54;;;;;;;3.38;3.08;;;;;35.90;93656.00;;;;7375203;19;20129;-78
2023/07/15 12:20:28;;;;;;;3.35;3.00;;;;;35.00;93666.00;;;;7381332;19;20129;-80
2023/07/15 12:23:03;;;;;;;5.20;2.90;;;;;34.90;93648.00;;;;7379619;19;20235;-80
2023/07/15 12:25:37;;;;;;;4.97;3.13;;;;;36.30;93645.00;;;;7378575;19;20128;-78
2023/07/15 12:28:05;;;;;;;3.65;3.35;;;;;36.90;93623.00;;;;7381109;19;20141;-80
2023/07/15 12:30:39;;;;;;;4.10;3.03;;;;;35.40;93633.00;;;;7379560;19;20603;-78
2023/07/15 12:33:09;;;;;;;5.00;3.25;;;;;35.00;93648.00;;;;7379435;19;20632;-77
2023/07/15 12:35:46;;;;;;;3.08;2.83;;;;;34.70;93655.00;;;;7380748;19;20181;-78
2023/07/15 12:38:14;;;;;;;4.25;3.38;;;;;35.10;93663.00;;;;7376811;19;20154;-79
2023/07/15 12:40:49;;;;;;;5.88;3.67;;;;;34.50;93643.00;;;;7377230;19;20647;-79
2023/07/15 12:43:23;;;;;;;6.93;3.33;;;;;34.30;93667.00;;;;7380354;19;20159;-78
2023/07/15 12:46:05;;;;;;;4.05;3.58;;;;;34.60;93672.00;;;;7381115;19;20152;-80
2023/07/15 12:48:33;;;;;;;5.47;3.22;;;;;34.40;93675.00;;;;7382286;19;20468;-80
2023/07/15 12:51:09;;;;;;;3.80;3.38;;;;;33.60;93677.00;;;;7380680;19;20141;-78
2023/07/15 12:53:37;;;;;;;3.35;3.05;;;;;33.20;93674.00;;;;7381509;19;20137;-79
2023/07/15 12:56:13;;;;;;;5.22;2.97;;;;;33.00;93658.00;;;;7383839;19;20173;-80